createdAt,value
2023-08-20T00:02:08.958Z,100.00
2023-08-20T00:04:38.339Z,100.00
2023-08-20T00:07:06.308Z,100.00
2023-08-20T00:09:34.196Z,100.00
2023-08-20T00:12:03.521Z,100.00
2023-08-20T00:15:10.043Z,100.00
2023-08-20T00:17:41.037Z,100.00
2023-08-20T00:20:11.513Z,100.00
2023-08-20T00:22:44.741Z,100.00
2023-08-20T00:25:17.198Z,100.00
2023-08-20T00:27:45.575Z,100.00
2023-08-20T00:30:13.677Z,100.00
2023-08-20T00:32:41.525Z,100.00
2023-08-20T00:35:09.195Z,100.00
2023-08-20T00:37:38.143Z,100.00
2023-08-20T00:40:07.145Z,100.00
2023-08-20T00:42:34.563Z,100.00
2023-08-20T00:45:01.929Z,100.00
2023-08-20T00:47:29.825Z,100.00
2023-08-20T00:49:58.025Z,100.00
2023-08-20T00:52:26.985Z,100.00
2023-08-20T00:54:55.739Z,100.00
2023-08-20T00:57:24.888Z,100.00
2023-08-20T00:59:52.510Z,100.00
2023-08-20T01:02:21.687Z,100.00
2023-08-20T01:04:50.663Z,100.00
2023-08-20T01:08:05.244Z,100.00
2023-08-20T01:10:53.307Z,100.00
2023-08-20T01:13:20.845Z,100.00
2023-08-20T01:15:48.283Z,100.00
2023-08-20T01:18:15.742Z,100.00
2023-08-20T01:20:59.398Z,100.00
2023-08-20T01:23:57.346Z,100.00
2023-08-20T01:27:18.817Z,100.00
2023-08-20T01:29:47.021Z,100.00
2023-08-20T01:32:15.136Z,100.00
2023-08-20T01:34:42.891Z,100.00
2023-08-20T01:37:10.820Z,100.00
2023-08-20T01:39:38.169Z,100.00
2023-08-20T01:42:07.245Z,100.00
2023-08-20T01:44:34.728Z,100.00
2023-08-20T01:47:03.375Z,100.00
2023-08-20T01:49:30.676Z,100.00
2023-08-20T01:51:58.009Z,100.00
2023-08-20T01:54:25.424Z,100.00
2023-08-20T01:56:52.927Z,100.00
2023-08-20T01:59:22.937Z,100.00
2023-08-20T02:01:50.315Z,100.00
2023-08-20T02:04:18.920Z,100.00
2023-08-20T02:06:46.362Z,100.00
2023-08-20T02:09:15.053Z,100.00
2023-08-20T02:11:42.431Z,100.00
2023-08-20T02:14:09.794Z,100.00
2023-08-20T02:16:38.003Z,100.00
2023-08-20T02:19:07.727Z,100.00
2023-08-20T02:21:35.405Z,100.00
2023-08-20T02:24:02.818Z,100.00
2023-08-20T02:26:30.127Z,100.00
2023-08-20T02:28:57.502Z,100.00
2023-08-20T02:31:25.101Z,100.00
2023-08-20T02:33:52.517Z,100.00
2023-08-20T02:36:19.913Z,100.00
2023-08-20T02:38:47.545Z,100.00
2023-08-20T02:41:16.311Z,100.00
2023-08-20T02:43:44.112Z,100.00
2023-08-20T02:46:11.517Z,100.00
2023-08-20T02:48:38.957Z,100.00
2023-08-20T02:51:06.307Z,100.00
2023-08-20T02:53:33.829Z,100.00
2023-08-20T02:56:01.205Z,100.00
2023-08-20T02:58:28.549Z,100.00
2023-08-20T03:00:55.862Z,100.00
2023-08-20T03:03:23.280Z,100.00
2023-08-20T03:05:51.486Z,100.00
2023-08-20T03:08:18.974Z,100.00
2023-08-20T03:10:46.543Z,100.00
2023-08-20T03:13:13.899Z,100.00
2023-08-20T03:15:41.464Z,100.00
2023-08-20T03:18:08.926Z,100.00
2023-08-20T03:20:36.491Z,100.00
2023-08-20T03:23:04.033Z,100.00
2023-08-20T03:25:31.361Z,100.00
2023-08-20T03:27:58.639Z,100.00
2023-08-20T03:30:26.036Z,100.00
2023-08-20T03:32:53.710Z,100.00
2023-08-20T03:35:21.128Z,100.00
2023-08-20T03:37:49.339Z,100.00
2023-08-20T03:40:16.907Z,100.00
2023-08-20T03:42:44.233Z,100.00
2023-08-20T03:45:11.572Z,100.00
2023-08-20T03:47:39.161Z,100.00
2023-08-20T03:50:07.394Z,100.00
2023-08-20T03:52:36.072Z,100.00
2023-08-20T03:55:04.939Z,100.00
2023-08-20T03:57:34.526Z,100.00
2023-08-20T04:00:02.122Z,100.00
2023-08-20T04:02:29.810Z,100.00
2023-08-20T04:04:59.572Z,100.00
2023-08-20T04:07:28.607Z,100.00
2023-08-20T04:09:56.122Z,100.00
2023-08-20T04:12:23.611Z,100.00
2023-08-20T04:14:50.970Z,100.00
2023-08-20T04:17:18.708Z,100.00
2023-08-20T04:19:46.230Z,100.00
2023-08-20T04:22:13.584Z,100.00
2023-08-20T04:24:40.976Z,100.00
2023-08-20T04:27:08.650Z,100.00
2023-08-20T04:29:37.280Z,100.00
2023-08-20T04:32:04.919Z,100.00
2023-08-20T04:34:33.257Z,100.00
2023-08-20T04:37:03.351Z,100.00
2023-08-20T04:39:31.857Z,100.00
2023-08-20T04:42:01.362Z,100.00
2023-08-20T04:44:28.966Z,100.00
2023-08-20T04:46:57.791Z,100.00
2023-08-20T04:49:29.646Z,100.00
2023-08-20T04:51:57.216Z,100.00
2023-08-20T04:54:24.567Z,100.00
2023-08-20T04:56:51.943Z,100.00
2023-08-20T04:59:19.344Z,100.00
2023-08-20T05:02:09.485Z,100.00
2023-08-20T05:04:45.276Z,100.00
2023-08-20T05:07:12.899Z,100.00
2023-08-20T05:09:40.210Z,100.00
2023-08-20T05:12:09.024Z,100.00
2023-08-20T05:14:37.462Z,100.00
2023-08-20T05:17:05.199Z,100.00
2023-08-20T05:19:32.867Z,100.00
2023-08-20T05:22:00.833Z,100.00
2023-08-20T05:24:32.774Z,100.00
2023-08-20T05:27:15.764Z,100.00
2023-08-20T05:29:46.047Z,100.00
2023-08-20T05:32:13.654Z,100.00
2023-08-20T05:34:42.291Z,100.00
2023-08-20T05:37:09.937Z,100.00
2023-08-20T05:39:45.734Z,100.00
2023-08-20T05:42:14.286Z,100.00
2023-08-20T05:44:47.402Z,100.00
2023-08-20T05:47:18.921Z,100.00
2023-08-20T05:49:46.446Z,100.00
2023-08-20T05:52:13.792Z,100.00
2023-08-20T05:54:43.370Z,100.00
2023-08-20T05:57:11.058Z,100.00
2023-08-20T05:59:38.452Z,100.00
2023-08-20T06:02:05.996Z,100.00
2023-08-20T06:04:33.546Z,100.00
2023-08-20T06:07:00.869Z,100.00
2023-08-20T06:09:28.206Z,100.00
2023-08-20T06:11:55.536Z,100.00
2023-08-20T06:14:22.929Z,100.00
2023-08-20T06:16:50.289Z,100.00
2023-08-20T06:19:17.695Z,100.00
2023-08-20T06:21:45.008Z,100.00
2023-08-20T06:24:12.513Z,100.00
2023-08-20T06:26:39.917Z,100.00
2023-08-20T06:29:07.259Z,100.00
2023-08-20T06:31:34.795Z,100.00
2023-08-20T06:34:02.306Z,100.00
2023-08-20T06:36:29.658Z,100.00
2023-08-20T06:38:57.010Z,100.00
2023-08-20T06:41:24.965Z,100.00
2023-08-20T06:43:52.423Z,100.00
2023-08-20T06:46:20.381Z,100.00
2023-08-20T06:48:47.813Z,100.00
2023-08-20T06:51:20.004Z,100.00
2023-08-20T06:53:47.366Z,100.00
2023-08-20T06:56:15.075Z,100.00
2023-08-20T06:58:44.525Z,100.00
2023-08-20T07:01:13.705Z,100.00
2023-08-20T07:03:45.842Z,100.00
2023-08-20T07:06:15.478Z,100.00
2023-08-20T07:08:44.018Z,100.00
2023-08-20T07:11:12.466Z,100.00
2023-08-20T07:13:39.907Z,100.00
2023-08-20T07:16:07.297Z,100.00
2023-08-20T07:18:34.684Z,100.00
2023-08-20T07:21:02.081Z,100.00
2023-08-20T07:23:29.778Z,100.00
2023-08-20T07:26:16.034Z,100.00
2023-08-20T07:28:58.690Z,100.00
2023-08-20T07:31:32.266Z,100.00
2023-08-20T07:34:05.939Z,100.00
2023-08-20T07:36:34.134Z,100.00
2023-08-20T07:39:03.264Z,100.00
2023-08-20T07:41:31.475Z,100.00
2023-08-20T07:43:58.850Z,100.00
2023-08-20T07:46:26.582Z,100.00
2023-08-20T07:48:53.979Z,100.00
2023-08-20T07:51:21.381Z,100.00
2023-08-20T07:53:48.758Z,100.00
2023-08-20T07:56:16.225Z,100.00
2023-08-20T07:58:43.556Z,100.00
2023-08-20T08:01:11.105Z,100.00
2023-08-20T08:03:38.675Z,100.00
2023-08-20T08:06:06.153Z,100.00
2023-08-20T08:08:33.612Z,100.00
2023-08-20T08:11:01.191Z,100.00
2023-08-20T08:13:28.721Z,100.00
2023-08-20T08:15:56.068Z,100.00
2023-08-20T08:18:23.612Z,100.00
2023-08-20T08:20:52.541Z,100.00
2023-08-20T08:23:19.900Z,100.00
2023-08-20T08:25:47.511Z,100.00
2023-08-20T08:28:14.997Z,100.00
2023-08-20T08:30:42.449Z,100.00
2023-08-20T08:33:10.026Z,100.00
2023-08-20T08:35:37.865Z,100.00
2023-08-20T08:38:06.522Z,100.00
2023-08-20T08:40:34.776Z,100.00
2023-08-20T08:43:03.314Z,100.00
2023-08-20T08:45:34.230Z,100.00
2023-08-20T08:48:04.743Z,100.00
2023-08-20T08:50:33.959Z,100.00
2023-08-20T08:53:02.169Z,100.00
2023-08-20T08:55:29.729Z,100.00
2023-08-20T08:57:57.109Z,100.00
2023-08-20T09:00:24.608Z,100.00
2023-08-20T09:02:51.977Z,100.00
2023-08-20T09:05:19.488Z,94.93
2023-08-20T09:07:46.929Z,92.52
2023-08-20T09:10:19.549Z,91.88
2023-08-20T09:12:49.439Z,87.65
2023-08-20T09:15:16.818Z,83.65
2023-08-20T09:17:44.387Z,78.60
2023-08-20T09:20:12.228Z,75.01
2023-08-20T09:22:39.736Z,72.29
2023-08-20T09:25:07.973Z,69.18
2023-08-20T09:27:43.955Z,68.60
2023-08-20T09:30:21.471Z,62.04
2023-08-20T09:33:11.161Z,59.88
2023-08-20T09:35:38.982Z,57.70
2023-08-20T09:38:06.812Z,57.67
2023-08-20T09:40:34.238Z,57.24
2023-08-20T09:43:04.670Z,53.33
2023-08-20T09:45:32.666Z,53.97
2023-08-20T09:48:06.846Z,53.83
2023-08-20T09:50:40.403Z,54.17
2023-08-20T09:53:38.767Z,54.23
2023-08-20T09:56:31.425Z,54.14
2023-08-20T09:59:03.558Z,50.93
2023-08-20T10:01:32.013Z,50.04
2023-08-20T10:04:01.064Z,49.64
2023-08-20T10:06:31.219Z,50.32
2023-08-20T10:09:00.394Z,48.49
2023-08-20T10:11:28.388Z,47.04
2023-08-20T10:13:56.010Z,46.88
2023-08-20T10:16:25.179Z,44.85
2023-08-20T10:18:52.858Z,42.27
2023-08-20T10:21:26.260Z,43.26
2023-08-20T10:23:54.359Z,41.73
2023-08-20T10:26:25.614Z,41.26
2023-08-20T10:29:31.498Z,41.68
2023-08-20T10:31:58.897Z,42.29
2023-08-20T10:34:39.520Z,42.07
2023-08-20T10:37:14.677Z,41.12
2023-08-20T10:39:46.886Z,41.11
2023-08-20T10:42:17.131Z,40.50
2023-08-20T10:45:10.160Z,39.42
2023-08-20T10:47:49.786Z,39.32
2023-08-20T10:50:21.794Z,39.40
2023-08-20T10:52:56.314Z,40.85
2023-08-20T10:55:25.294Z,40.56
2023-08-20T10:58:00.986Z,37.87
2023-08-20T11:00:29.566Z,38.50
2023-08-20T11:03:00.226Z,39.10
2023-08-20T11:05:28.377Z,40.03
2023-08-20T11:07:56.012Z,39.99
2023-08-20T11:10:23.448Z,41.04
2023-08-20T11:12:50.757Z,40.15
2023-08-20T11:15:18.366Z,40.63
2023-08-20T11:17:51.528Z,38.35
2023-08-20T11:20:19.746Z,39.26
2023-08-20T11:22:47.234Z,39.30
2023-08-20T11:25:14.626Z,39.16
2023-08-20T11:27:45.619Z,39.95
2023-08-20T11:30:14.718Z,40.03
2023-08-20T11:32:44.059Z,39.55
2023-08-20T11:35:12.360Z,38.41
2023-08-20T11:37:41.515Z,38.39
2023-08-20T11:40:10.325Z,38.75
2023-08-20T11:42:37.927Z,41.57
2023-08-20T11:45:06.531Z,39.41
2023-08-20T11:47:43.718Z,40.41
2023-08-20T11:50:11.725Z,41.00
2023-08-20T11:52:40.952Z,41.48
2023-08-20T11:55:10.309Z,42.08
2023-08-20T11:57:38.024Z,42.36
2023-08-20T12:00:14.303Z,43.07
2023-08-20T12:02:45.075Z,43.30
2023-08-20T12:05:13.415Z,44.58
2023-08-20T12:07:41.057Z,45.38
2023-08-20T12:10:22.843Z,46.04
2023-08-20T12:12:51.340Z,45.94
2023-08-20T12:15:20.306Z,45.87
2023-08-20T12:18:08.019Z,45.83
2023-08-20T12:20:37.470Z,45.72
2023-08-20T12:23:07.977Z,45.09
2023-08-20T12:25:37.028Z,46.18
2023-08-20T12:28:08.481Z,46.35
2023-08-20T12:30:38.958Z,47.35
2023-08-20T12:33:07.944Z,47.53
2023-08-20T12:35:36.740Z,48.92
2023-08-20T12:38:05.296Z,48.67
2023-08-20T12:40:32.838Z,48.76
2023-08-20T12:43:00.203Z,48.08
2023-08-20T12:45:27.636Z,49.44
2023-08-20T12:47:55.258Z,48.75
2023-08-20T12:50:22.763Z,48.79
2023-08-20T12:52:52.050Z,48.11
2023-08-20T12:55:19.624Z,49.13
2023-08-20T12:58:00.530Z,49.67
2023-08-20T13:00:28.757Z,50.72
2023-08-20T13:02:57.885Z,50.21
2023-08-20T13:05:27.192Z,48.80
2023-08-20T13:07:55.406Z,48.52
2023-08-20T13:10:24.147Z,49.22
2023-08-20T13:12:59.924Z,48.92
2023-08-20T13:15:28.754Z,49.04
2023-08-20T13:17:56.784Z,49.55
2023-08-20T13:20:25.936Z,49.95
2023-08-20T13:22:54.408Z,49.13
2023-08-20T13:25:22.714Z,48.68
2023-08-20T13:27:50.847Z,48.05
2023-08-20T13:30:19.073Z,48.04
2023-08-20T13:32:46.641Z,47.34
2023-08-20T13:35:15.672Z,47.09
2023-08-20T13:37:43.623Z,47.99
2023-08-20T13:40:12.847Z,47.26
2023-08-20T13:42:40.171Z,46.80
2023-08-20T13:45:08.859Z,45.77
2023-08-20T13:47:36.508Z,46.04
2023-08-20T13:50:05.844Z,44.95
2023-08-20T13:52:33.365Z,46.22
2023-08-20T13:55:00.841Z,44.54
2023-08-20T13:57:28.255Z,43.75
2023-08-20T13:59:56.673Z,44.42
2023-08-20T14:02:24.129Z,44.39
2023-08-20T14:04:52.050Z,44.48
2023-08-20T14:07:20.008Z,45.38
2023-08-20T14:09:47.488Z,45.50
2023-08-20T14:12:14.866Z,45.16
2023-08-20T14:14:42.358Z,44.70
2023-08-20T14:17:10.554Z,45.51
2023-08-20T14:19:37.933Z,45.71
2023-08-20T14:22:05.369Z,44.82
2023-08-20T14:24:32.916Z,45.34
2023-08-20T14:27:00.291Z,44.41
2023-08-20T14:29:29.247Z,43.82
2023-08-20T14:31:56.597Z,43.38
2023-08-20T14:34:24.004Z,43.75
2023-08-20T14:36:52.754Z,44.07
2023-08-20T14:39:21.691Z,43.98
2023-08-20T14:41:49.006Z,41.79
2023-08-20T14:44:16.464Z,41.27
2023-08-20T14:46:43.824Z,39.42
2023-08-20T14:49:11.189Z,38.80
2023-08-20T14:51:38.542Z,38.33
2023-08-20T14:54:06.274Z,39.13
2023-08-20T14:56:33.752Z,38.33
2023-08-20T14:59:01.167Z,37.64
2023-08-20T15:01:28.688Z,37.36
2023-08-20T15:03:56.070Z,37.98
2023-08-20T15:06:25.805Z,38.95
2023-08-20T15:08:54.324Z,39.88
2023-08-20T15:11:21.766Z,40.28
2023-08-20T15:13:49.190Z,41.06
2023-08-20T15:16:16.581Z,39.46
2023-08-20T15:18:43.893Z,38.33
2023-08-20T15:21:12.828Z,38.80
2023-08-20T15:23:40.305Z,40.48
2023-08-20T15:26:08.672Z,41.20
2023-08-20T15:28:36.104Z,41.44
2023-08-20T15:31:03.606Z,42.53
2023-08-20T15:33:31.471Z,42.46
2023-08-20T15:36:00.567Z,43.61
2023-08-20T15:38:29.023Z,45.25
2023-08-20T15:40:56.710Z,45.94
2023-08-20T15:43:24.090Z,44.91
2023-08-20T15:45:51.633Z,43.45
2023-08-20T15:48:19.328Z,42.50
2023-08-20T15:50:46.810Z,41.86
2023-08-20T15:53:14.938Z,41.81
2023-08-20T15:55:42.448Z,40.56
2023-08-20T15:58:09.856Z,40.71
2023-08-20T16:00:37.517Z,40.92
2023-08-20T16:03:05.574Z,40.16
2023-08-20T16:05:33.078Z,40.15
2023-08-20T16:08:00.418Z,40.71
2023-08-20T16:10:27.779Z,41.85
2023-08-20T16:12:55.142Z,41.78
2023-08-20T16:15:22.546Z,42.74
2023-08-20T16:17:50.019Z,44.40
2023-08-20T16:20:17.470Z,44.15
2023-08-20T16:22:46.259Z,45.21
2023-08-20T16:25:13.659Z,45.85
2023-08-20T16:27:41.368Z,46.70
2023-08-20T16:30:11.811Z,48.12
2023-08-20T16:32:40.025Z,48.03
2023-08-20T16:35:08.625Z,48.48
2023-08-20T16:37:36.344Z,49.25
2023-08-20T16:40:09.021Z,49.99
2023-08-20T16:42:36.653Z,51.31
2023-08-20T16:45:04.649Z,50.99
2023-08-20T16:47:32.062Z,51.83
2023-08-20T16:49:59.418Z,52.40
2023-08-20T16:52:26.803Z,52.96
2023-08-20T16:54:55.899Z,52.93
2023-08-20T16:57:24.076Z,52.57
2023-08-20T16:59:53.318Z,53.08
2023-08-20T17:02:21.423Z,53.23
2023-08-20T17:04:50.608Z,53.66
2023-08-20T17:07:18.257Z,54.23
2023-08-20T17:09:45.837Z,53.92
2023-08-20T17:12:13.682Z,54.56
2023-08-20T17:14:41.552Z,54.42
2023-08-20T17:17:10.457Z,55.10
2023-08-20T17:19:37.830Z,55.65
2023-08-20T17:22:05.499Z,55.04
2023-08-20T17:24:33.229Z,55.80
2023-08-20T17:27:00.928Z,56.32
2023-08-20T17:29:28.689Z,57.25
2023-08-20T17:31:56.162Z,57.78
2023-08-20T17:34:23.768Z,59.22
2023-08-20T17:36:51.225Z,60.41
2023-08-20T17:39:21.330Z,61.81
2023-08-20T17:41:48.774Z,62.83
2023-08-20T17:44:16.235Z,64.64
2023-08-20T17:46:49.563Z,65.82
2023-08-20T17:49:20.456Z,66.22
2023-08-20T17:51:49.010Z,66.99
2023-08-20T17:54:17.508Z,67.79
2023-08-20T17:56:44.879Z,67.98
2023-08-20T17:59:12.269Z,69.00
2023-08-20T18:01:39.992Z,69.06
2023-08-20T18:04:07.514Z,69.03
2023-08-20T18:06:34.918Z,70.10
2023-08-20T18:09:02.320Z,70.75
2023-08-20T18:11:29.743Z,71.44
2023-08-20T18:13:57.128Z,72.66
2023-08-20T18:16:24.584Z,73.02
2023-08-20T18:18:52.076Z,73.99
2023-08-20T18:21:19.526Z,74.57
2023-08-20T18:23:48.280Z,76.06
2023-08-20T18:26:15.782Z,76.45
2023-08-20T18:28:43.133Z,77.42
2023-08-20T18:31:10.784Z,79.03
2023-08-20T18:33:38.208Z,79.48
2023-08-20T18:36:05.923Z,80.06
2023-08-20T18:38:33.938Z,80.93
2023-08-20T18:41:08.272Z,81.68
2023-08-20T18:43:35.664Z,82.53
2023-08-20T18:46:04.465Z,83.34
2023-08-20T18:48:35.057Z,84.10
2023-08-20T18:51:07.336Z,84.81
2023-08-20T18:53:35.619Z,85.40
2023-08-20T18:56:06.374Z,86.20
2023-08-20T18:58:34.866Z,85.90
2023-08-20T19:01:02.933Z,87.09
2023-08-20T19:03:31.355Z,87.43
2023-08-20T19:05:59.051Z,87.97
2023-08-20T19:08:27.083Z,89.55
2023-08-20T19:10:54.545Z,89.59
2023-08-20T19:13:22.022Z,90.62
2023-08-20T19:15:51.475Z,90.82
2023-08-20T19:18:19.554Z,91.95
2023-08-20T19:20:56.248Z,93.04
2023-08-20T19:23:24.598Z,93.50
2023-08-20T19:25:52.409Z,93.91
2023-08-20T19:28:19.811Z,94.45
2023-08-20T19:30:54.389Z,95.27
2023-08-20T19:33:25.405Z,95.37
2023-08-20T19:35:52.780Z,96.05
2023-08-20T19:38:20.163Z,96.36
2023-08-20T19:40:48.715Z,97.20
2023-08-20T19:43:16.554Z,96.88
2023-08-20T19:45:44.033Z,97.52
2023-08-20T19:48:12.729Z,98.48
2023-08-20T19:50:41.014Z,98.33
2023-08-20T19:53:08.437Z,98.72
2023-08-20T19:55:35.842Z,99.22
2023-08-20T19:58:04.832Z,100.00
2023-08-20T20:00:32.625Z,99.95
2023-08-20T20:02:59.974Z,99.81
2023-08-20T20:05:30.878Z,100.00
2023-08-20T20:08:03.256Z,100.00
2023-08-20T20:10:30.679Z,100.00
2023-08-20T20:12:58.050Z,100.00
2023-08-20T20:15:25.430Z,100.00
2023-08-20T20:17:52.961Z,100.00
2023-08-20T20:20:23.027Z,100.00
2023-08-20T20:22:51.038Z,100.00
2023-08-20T20:25:18.439Z,100.00
2023-08-20T20:27:47.562Z,100.00
2023-08-20T20:30:15.145Z,100.00
2023-08-20T20:32:42.697Z,100.00
2023-08-20T20:35:10.976Z,100.00
2023-08-20T20:37:42.217Z,100.00
2023-08-20T20:40:10.656Z,100.00
2023-08-20T20:42:38.683Z,100.00
2023-08-20T20:45:07.458Z,100.00
2023-08-20T20:47:39.099Z,100.00
2023-08-20T20:50:08.652Z,100.00
2023-08-20T20:52:37.166Z,100.00
2023-08-20T20:55:06.517Z,100.00
2023-08-20T20:57:33.915Z,100.00
2023-08-20T21:00:01.819Z,100.00
2023-08-20T21:02:29.518Z,100.00
2023-08-20T21:04:57.124Z,100.00
2023-08-20T21:07:25.207Z,100.00
2023-08-20T21:09:52.913Z,100.00
2023-08-20T21:12:20.305Z,100.00
2023-08-20T21:14:47.740Z,100.00
2023-08-20T21:17:15.316Z,100.00
2023-08-20T21:19:42.693Z,100.00
2023-08-20T21:22:16.280Z,100.00
2023-08-20T21:24:44.697Z,100.00
2023-08-20T21:27:12.337Z,100.00
2023-08-20T21:29:41.171Z,100.00
2023-08-20T21:32:10.211Z,100.00
2023-08-20T21:34:39.551Z,100.00
2023-08-20T21:37:06.971Z,100.00
2023-08-20T21:39:34.329Z,100.00
2023-08-20T21:42:01.719Z,100.00
2023-08-20T21:44:30.067Z,100.00
2023-08-20T21:46:57.515Z,100.00
2023-08-20T21:49:25.089Z,100.00
2023-08-20T21:51:53.055Z,100.00
2023-08-20T21:54:20.898Z,100.00
2023-08-20T21:56:52.465Z,100.00
2023-08-20T21:59:20.156Z,100.00
2023-08-20T22:01:47.901Z,100.00
2023-08-20T22:04:15.347Z,100.00
2023-08-20T22:06:42.753Z,100.00
2023-08-20T22:09:10.066Z,100.00
2023-08-20T22:11:37.425Z,100.00
2023-08-20T22:14:04.783Z,100.00
2023-08-20T22:16:32.163Z,100.00
2023-08-20T22:18:59.581Z,100.00
2023-08-20T22:21:26.950Z,100.00
2023-08-20T22:23:54.356Z,100.00
2023-08-20T22:26:21.715Z,100.00
2023-08-20T22:28:49.174Z,100.00
2023-08-20T22:31:16.537Z,100.00
2023-08-20T22:33:43.943Z,100.00
2023-08-20T22:36:11.340Z,100.00
2023-08-20T22:38:39.090Z,100.00
2023-08-20T22:41:06.557Z,100.00
2023-08-20T22:43:34.168Z,100.00
2023-08-20T22:46:01.533Z,100.00
2023-08-20T22:48:28.950Z,100.00
2023-08-20T22:50:56.338Z,100.00
2023-08-20T22:53:23.734Z,100.00
2023-08-20T22:55:52.405Z,100.00
2023-08-20T22:58:20.421Z,100.00
2023-08-20T23:00:49.449Z,100.00
2023-08-20T23:03:16.889Z,100.00
2023-08-20T23:05:44.387Z,100.00
2023-08-20T23:08:12.080Z,100.00
2023-08-20T23:10:39.458Z,100.00
2023-08-20T23:13:06.907Z,100.00
2023-08-20T23:15:34.236Z,100.00
2023-08-20T23:18:01.625Z,100.00
2023-08-20T23:20:29.155Z,100.00
2023-08-20T23:22:56.988Z,100.00
2023-08-20T23:25:24.490Z,100.00
2023-08-20T23:27:51.849Z,100.00
2023-08-20T23:30:19.406Z,100.00
2023-08-20T23:32:53.690Z,100.00
2023-08-20T23:35:21.050Z,100.00
2023-08-20T23:37:48.361Z,100.00
2023-08-20T23:40:16.317Z,100.00
2023-08-20T23:42:45.006Z,100.00
2023-08-20T23:45:12.338Z,100.00
2023-08-20T23:47:39.664Z,100.00
2023-08-20T23:50:09.741Z,100.00
2023-08-20T23:52:37.396Z,100.00
2023-08-20T23:55:05.485Z,100.00
2023-08-20T23:57:32.818Z,100.00
